sensor_id;sensor_type;location;lat;lon;timestamp;P1;durP1;ratioP1;P2;durP2;ratioP2
8694;SDS011;65580;49.446;6.854;2023-05-07T00:01:01;5.63;;;2.40;;
8694;SDS011;65580;49.446;6.854;2023-05-07T00:05:05;9.70;;;2.70;;
8694;SDS011;65580;49.446;6.854;2023-05-07T00:09:10;5.63;;;3.33;;
8694;SDS011;65580;49.446;6.854;2023-05-07T00:13:14;6.47;;;3.60;;
8694;SDS011;65580;49.446;6.854;2023-05-07T00:17:18;7.15;;;3.13;;
8694;SDS011;65580;49.446;6.854;2023-05-07T00:21:21;7.65;;;4.13;;
8694;SDS011;65580;49.446;6.854;2023-05-07T00:25:28;6.00;;;3.05;;
8694;SDS011;65580;49.446;6.854;2023-05-07T00:29:31;7.47;;;2.45;;
8694;SDS011;65580;49.446;6.854;2023-05-07T00:33:35;7.47;;;3.20;;
8694;SDS011;65580;49.446;6.854;2023-05-07T00:37:39;5.45;;;3.00;;
8694;SDS011;65580;49.446;6.854;2023-05-07T00:41:42;5.18;;;2.67;;
8694;SDS011;65580;49.446;6.854;2023-05-07T00:45:45;3.78;;;3.00;;
8694;SDS011;65580;49.446;6.854;2023-05-07T00:49:49;4.43;;;3.05;;
8694;SDS011;65580;49.446;6.854;2023-05-07T00:53:52;8.93;;;2.72;;
8694;SDS011;65580;49.446;6.854;2023-05-07T00:57:56;5.47;;;2.60;;
8694;SDS011;65580;49.446;6.854;2023-05-07T01:01:59;4.55;;;3.13;;
8694;SDS011;65580;49.446;6.854;2023-05-07T01:06:03;2.90;;;2.40;;
8694;SDS011;65580;49.446;6.854;2023-05-07T01:10:08;5.68;;;2.60;;
8694;SDS011;65580;49.446;6.854;2023-05-07T01:14:12;4.63;;;2.83;;
8694;SDS011;65580;49.446;6.854;2023-05-07T01:18:15;5.57;;;3.20;;
8694;SDS011;65580;49.446;6.854;2023-05-07T01:22:24;4.88;;;2.72;;
8694;SDS011;65580;49.446;6.854;2023-05-07T01:26:31;5.63;;;2.90;;
8694;SDS011;65580;49.446;6.854;2023-05-07T01:30:34;4.90;;;2.78;;
8694;SDS011;65580;49.446;6.854;2023-05-07T01:34:37;4.65;;;2.42;;
8694;SDS011;65580;49.446;6.854;2023-05-07T01:38:42;4.55;;;2.85;;
8694;SDS011;65580;49.446;6.854;2023-05-07T01:42:47;4.57;;;2.75;;
8694;SDS011;65580;49.446;6.854;2023-05-07T01:50:54;4.82;;;2.78;;
8694;SDS011;65580;49.446;6.854;2023-05-07T01:54:59;7.15;;;3.08;;
8694;SDS011;65580;49.446;6.854;2023-05-07T01:59:02;5.70;;;2.95;;
8694;SDS011;65580;49.446;6.854;2023-05-07T02:07:09;5.57;;;4.18;;
8694;SDS011;65580;49.446;6.854;2023-05-07T02:11:14;6.53;;;3.25;;
8694;SDS011;65580;49.446;6.854;2023-05-07T02:15:17;6.90;;;3.72;;
8694;SDS011;65580;49.446;6.854;2023-05-07T02:19:22;9.18;;;4.72;;
8694;SDS011;65580;49.446;6.854;2023-05-07T02:23:25;8.05;;;4.82;;
8694;SDS011;65580;49.446;6.854;2023-05-07T02:27:30;6.55;;;3.65;;
8694;SDS011;65580;49.446;6.854;2023-05-07T02:35:40;6.82;;;3.65;;
8694;SDS011;65580;49.446;6.854;2023-05-07T02:39:43;6.53;;;3.53;;
8694;SDS011;65580;49.446;6.854;2023-05-07T02:43:48;5.85;;;3.78;;
8694;SDS011;65580;49.446;6.854;2023-05-07T02:47:51;5.85;;;3.88;;
8694;SDS011;65580;49.446;6.854;2023-05-07T02:51:56;3.53;;;2.90;;
8694;SDS011;65580;49.446;6.854;2023-05-07T02:56:01;6.30;;;3.05;;
8694;SDS011;65580;49.446;6.854;2023-05-07T03:00:14;9.40;;;4.85;;
8694;SDS011;65580;49.446;6.854;2023-05-07T03:04:21;8.23;;;3.70;;
8694;SDS011;65580;49.446;6.854;2023-05-07T03:08:24;6.07;;;3.40;;
8694;SDS011;65580;49.446;6.854;2023-05-07T03:12:27;9.20;;;5.18;;
8694;SDS011;65580;49.446;6.854;2023-05-07T03:16:32;5.47;;;3.25;;
8694;SDS011;65580;49.446;6.854;2023-05-07T03:20:35;7.15;;;4.20;;
8694;SDS011;65580;49.446;6.854;2023-05-07T03:24:38;7.32;;;3.95;;
8694;SDS011;65580;49.446;6.854;2023-05-07T03:28:42;6.10;;;3.90;;
8694;SDS011;65580;49.446;6.854;2023-05-07T03:32:47;11.52;;;5.10;;
8694;SDS011;65580;49.446;6.854;2023-05-07T03:36:54;8.95;;;3.65;;
8694;SDS011;65580;49.446;6.854;2023-05-07T03:40:57;14.95;;;6.20;;
8694;SDS011;65580;49.446;6.854;2023-05-07T03:45:00;10.38;;;5.47;;
8694;SDS011;65580;49.446;6.854;2023-05-07T03:49:05;9.38;;;5.00;;
8694;SDS011;65580;49.446;6.854;2023-05-07T03:53:08;12.48;;;7.50;;
8694;SDS011;65580;49.446;6.854;2023-05-07T03:57:11;8.63;;;4.80;;
8694;SDS011;65580;49.446;6.854;2023-05-07T04:01:14;6.00;;;4.38;;
8694;SDS011;65580;49.446;6.854;2023-05-07T04:05:18;8.88;;;5.35;;
8694;SDS011;65580;49.446;6.854;2023-05-07T04:13:31;14.65;;;4.68;;
8694;SDS011;65580;49.446;6.854;2023-05-07T04:17:34;6.95;;;4.78;;
8694;SDS011;65580;49.446;6.854;2023-05-07T04:21:41;6.97;;;4.65;;
8694;SDS011;65580;49.446;6.854;2023-05-07T04:25:44;15.30;;;8.30;;
8694;SDS011;65580;49.446;6.854;2023-05-07T04:29:47;10.18;;;5.93;;
8694;SDS011;65580;49.446;6.854;2023-05-07T04:33:50;22.88;;;9.75;;
8694;SDS011;65580;49.446;6.854;2023-05-07T04:37:55;7.55;;;5.47;;
8694;SDS011;65580;49.446;6.854;2023-05-07T04:41:59;10.90;;;5.22;;
8694;SDS011;65580;49.446;6.854;2023-05-07T04:46:08;10.57;;;5.15;;
8694;SDS011;65580;49.446;6.854;2023-05-07T04:50:11;8.98;;;4.68;;
8694;SDS011;65580;49.446;6.854;2023-05-07T04:54:16;14.15;;;6.55;;
8694;SDS011;65580;49.446;6.854;2023-05-07T04:58:19;12.65;;;6.75;;
8694;SDS011;65580;49.446;6.854;2023-05-07T05:02:23;9.25;;;5.55;;
8694;SDS011;65580;49.446;6.854;2023-05-07T05:06:26;15.35;;;7.28;;
8694;SDS011;65580;49.446;6.854;2023-05-07T05:10:31;7.72;;;4.85;;
8694;SDS011;65580;49.446;6.854;2023-05-07T05:14:34;12.93;;;5.57;;
8694;SDS011;65580;49.446;6.854;2023-05-07T05:22:41;9.50;;;4.55;;
8694;SDS011;65580;49.446;6.854;2023-05-07T05:26:45;12.82;;;6.78;;
8694;SDS011;65580;49.446;6.854;2023-05-07T05:30:49;8.45;;;5.90;;
8694;SDS011;65580;49.446;6.854;2023-05-07T05:34:52;10.25;;;5.95;;
8694;SDS011;65580;49.446;6.854;2023-05-07T05:38:55;7.95;;;4.95;;
8694;SDS011;65580;49.446;6.854;2023-05-07T05:43:00;9.63;;;6.18;;
8694;SDS011;65580;49.446;6.854;2023-05-07T05:47:03;10.18;;;5.60;;
8694;SDS011;65580;49.446;6.854;2023-05-07T05:51:06;6.10;;;3.95;;
8694;SDS011;65580;49.446;6.854;2023-05-07T05:55:09;6.25;;;4.13;;
8694;SDS011;65580;49.446;6.854;2023-05-07T05:59:14;7.47;;;4.55;;
8694;SDS011;65580;49.446;6.854;2023-05-07T06:03:17;10.70;;;5.05;;
8694;SDS011;65580;49.446;6.854;2023-05-07T06:11:25;6.65;;;3.92;;
8694;SDS011;65580;49.446;6.854;2023-05-07T06:15:30;5.75;;;3.38;;
8694;SDS011;65580;49.446;6.854;2023-05-07T06:19:33;6.32;;;4.00;;
8694;SDS011;65580;49.446;6.854;2023-05-07T06:23:38;7.00;;;3.80;;
8694;SDS011;65580;49.446;6.854;2023-05-07T06:27:42;7.93;;;4.68;;
8694;SDS011;65580;49.446;6.854;2023-05-07T06:31:46;7.43;;;3.20;;
8694;SDS011;65580;49.446;6.854;2023-05-07T06:35:50;6.25;;;3.75;;
8694;SDS011;65580;49.446;6.854;2023-05-07T06:39:55;10.27;;;4.72;;
8694;SDS011;65580;49.446;6.854;2023-05-07T06:44:00;6.88;;;3.35;;
8694;SDS011;65580;49.446;6.854;2023-05-07T06:48:12;5.93;;;3.33;;
8694;SDS011;65580;49.446;6.854;2023-05-07T06:52:15;7.82;;;3.42;;
8694;SDS011;65580;49.446;6.854;2023-05-07T06:56:18;4.35;;;2.50;;
8694;SDS011;65580;49.446;6.854;2023-05-07T07:00:22;5.50;;;2.90;;
8694;SDS011;65580;49.446;6.854;2023-05-07T07:04:26;5.22;;;2.65;;
8694;SDS011;65580;49.446;6.854;2023-05-07T07:08:30;2.40;;;1.90;;
8694;SDS011;65580;49.446;6.854;2023-05-07T07:12:33;4.70;;;2.30;;
8694;SDS011;65580;49.446;6.854;2023-05-07T07:24:48;3.03;;;2.10;;
8694;SDS011;65580;49.446;6.854;2023-05-07T07:28:52;2.75;;;2.00;;
8694;SDS011;65580;49.446;6.854;2023-05-07T07:32:55;4.28;;;2.13;;
8694;SDS011;65580;49.446;6.854;2023-05-07T07:37:05;3.00;;;1.98;;
8694;SDS011;65580;49.446;6.854;2023-05-07T07:41:08;3.75;;;2.50;;
8694;SDS011;65580;49.446;6.854;2023-05-07T07:45:14;2.95;;;1.98;;
8694;SDS011;65580;49.446;6.854;2023-05-07T07:49:17;2.88;;;2.00;;
8694;SDS011;65580;49.446;6.854;2023-05-07T07:53:22;3.78;;;2.00;;
8694;SDS011;65580;49.446;6.854;2023-05-07T07:57:25;4.60;;;2.50;;
8694;SDS011;65580;49.446;6.854;2023-05-07T08:05:39;4.55;;;2.00;;
8694;SDS011;65580;49.446;6.854;2023-05-07T08:09:44;5.18;;;2.35;;
8694;SDS011;65580;49.446;6.854;2023-05-07T08:13:47;3.22;;;2.10;;
8694;SDS011;65580;49.446;6.854;2023-05-07T08:21:53;3.28;;;1.95;;
8694;SDS011;65580;49.446;6.854;2023-05-07T08:25:58;3.55;;;2.08;;
8694;SDS011;65580;49.446;6.854;2023-05-07T08:30:01;3.47;;;1.75;;
8694;SDS011;65580;49.446;6.854;2023-05-07T08:34:16;4.45;;;1.60;;
8694;SDS011;65580;49.446;6.854;2023-05-07T08:38:19;6.03;;;1.60;;
8694;SDS011;65580;49.446;6.854;2023-05-07T08:42:24;4.38;;;1.50;;
8694;SDS011;65580;49.446;6.854;2023-05-07T08:46:27;2.00;;;1.38;;
8694;SDS011;65580;49.446;6.854;2023-05-07T08:50:38;2.97;;;1.20;;
8694;SDS011;65580;49.446;6.854;2023-05-07T08:54:41;1.40;;;1.30;;
8694;SDS011;65580;49.446;6.854;2023-05-07T08:58:46;5.60;;;1.73;;
8694;SDS011;65580;49.446;6.854;2023-05-07T09:02:51;2.60;;;1.30;;
8694;SDS011;65580;49.446;6.854;2023-05-07T09:06:57;2.15;;;1.30;;
8694;SDS011;65580;49.446;6.854;2023-05-07T09:11:06;4.40;;;1.45;;
8694;SDS011;65580;49.446;6.854;2023-05-07T09:15:11;3.72;;;1.55;;
8694;SDS011;65580;49.446;6.854;2023-05-07T09:19:14;2.80;;;1.70;;
8694;SDS011;65580;49.446;6.854;2023-05-07T09:23:17;2.35;;;1.48;;
8694;SDS011;65580;49.446;6.854;2023-05-07T09:27:20;3.10;;;1.50;;
8694;SDS011;65580;49.446;6.854;2023-05-07T09:31:25;3.22;;;1.95;;
8694;SDS011;65580;49.446;6.854;2023-05-07T09:35:28;3.13;;;1.67;;
8694;SDS011;65580;49.446;6.854;2023-05-07T09:39:39;5.45;;;1.75;;
8694;SDS011;65580;49.446;6.854;2023-05-07T09:43:43;1.70;;;1.50;;
8694;SDS011;65580;49.446;6.854;2023-05-07T09:47:47;2.25;;;1.73;;
8694;SDS011;65580;49.446;6.854;2023-05-07T09:51:51;4.43;;;1.70;;
8694;SDS011;65580;49.446;6.854;2023-05-07T09:55:55;4.47;;;1.80;;
8694;SDS011;65580;49.446;6.854;2023-05-07T09:59:59;3.38;;;1.50;;
8694;SDS011;65580;49.446;6.854;2023-05-07T10:04:05;5.30;;;1.65;;
8694;SDS011;65580;49.446;6.854;2023-05-07T10:08:09;3.42;;;1.77;;
8694;SDS011;65580;49.446;6.854;2023-05-07T10:12:13;2.97;;;1.98;;
8694;SDS011;65580;49.446;6.854;2023-05-07T10:16:16;3.15;;;1.65;;
8694;SDS011;65580;49.446;6.854;2023-05-07T10:20:21;2.72;;;1.98;;
8694;SDS011;65580;49.446;6.854;2023-05-07T10:24:25;2.97;;;1.85;;
8694;SDS011;65580;49.446;6.854;2023-05-07T10:28:29;4.68;;;1.83;;
8694;SDS011;65580;49.446;6.854;2023-05-07T10:32:37;2.55;;;1.80;;
8694;SDS011;65580;49.446;6.854;2023-05-07T10:36:44;5.05;;;2.13;;
8694;SDS011;65580;49.446;6.854;2023-05-07T10:40:47;4.43;;;2.22;;
8694;SDS011;65580;49.446;6.854;2023-05-07T10:44:51;2.45;;;1.80;;
8694;SDS011;65580;49.446;6.854;2023-05-07T10:49:10;2.85;;;1.80;;
8694;SDS011;65580;49.446;6.854;2023-05-07T10:53:22;3.33;;;1.70;;
8694;SDS011;65580;49.446;6.854;2023-05-07T10:57:37;3.92;;;1.92;;
8694;SDS011;65580;49.446;6.854;2023-05-07T11:01:50;3.85;;;1.70;;
8694;SDS011;65580;49.446;6.854;2023-05-07T11:06:08;3.35;;;1.40;;
8694;SDS011;65580;49.446;6.854;2023-05-07T11:10:14;3.40;;;1.60;;
8694;SDS011;65580;49.446;6.854;2023-05-07T11:18:53;3.90;;;1.50;;
8694;SDS011;65580;49.446;6.854;2023-05-07T11:22:57;2.13;;;1.50;;
8694;SDS011;65580;49.446;6.854;2023-05-07T11:27:01;2.17;;;1.48;;
8694;SDS011;65580;49.446;6.854;2023-05-07T11:31:05;3.85;;;1.40;;
8694;SDS011;65580;49.446;6.854;2023-05-07T11:35:08;2.67;;;1.50;;
8694;SDS011;65580;49.446;6.854;2023-05-07T11:39:24;2.95;;;1.50;;
8694;SDS011;65580;49.446;6.854;2023-05-07T11:43:34;2.50;;;1.38;;
8694;SDS011;65580;49.446;6.854;2023-05-07T11:47:37;1.67;;;1.20;;
8694;SDS011;65580;49.446;6.854;2023-05-07T11:51:40;3.85;;;1.45;;
8694;SDS011;65580;49.446;6.854;2023-05-07T11:55:44;3.75;;;1.42;;
8694;SDS011;65580;49.446;6.854;2023-05-07T11:59:53;2.40;;;1.35;;
8694;SDS011;65580;49.446;6.854;2023-05-07T12:03:57;4.72;;;1.38;;
8694;SDS011;65580;49.446;6.854;2023-05-07T12:08:00;2.05;;;1.30;;
8694;SDS011;65580;49.446;6.854;2023-05-07T12:12:04;3.17;;;1.70;;
8694;SDS011;65580;49.446;6.854;2023-05-07T12:16:08;3.85;;;2.00;;
8694;SDS011;65580;49.446;6.854;2023-05-07T12:20:26;2.08;;;1.60;;
8694;SDS011;65580;49.446;6.854;2023-05-07T12:24:41;2.50;;;1.60;;
8694;SDS011;65580;49.446;6.854;2023-05-07T12:28:45;2.58;;;1.52;;
8694;SDS011;65580;49.446;6.854;2023-05-07T12:32:57;2.92;;;1.40;;
8694;SDS011;65580;49.446;6.854;2023-05-07T12:37:01;4.45;;;1.50;;
8694;SDS011;65580;49.446;6.854;2023-05-07T12:41:06;4.50;;;1.67;;
8694;SDS011;65580;49.446;6.854;2023-05-07T12:45:09;3.08;;;1.50;;
8694;SDS011;65580;49.446;6.854;2023-05-07T12:49:15;3.90;;;1.73;;
8694;SDS011;65580;49.446;6.854;2023-05-07T12:53:20;4.70;;;1.77;;
8694;SDS011;65580;49.446;6.854;2023-05-07T12:57:24;3.67;;;1.90;;
8694;SDS011;65580;49.446;6.854;2023-05-07T13:01:29;4.63;;;1.77;;
8694;SDS011;65580;49.446;6.854;2023-05-07T13:05:33;3.78;;;1.90;;
8694;SDS011;65580;49.446;6.854;2023-05-07T13:09:38;6.93;;;2.28;;
8694;SDS011;65580;49.446;6.854;2023-05-07T13:13:48;4.57;;;2.00;;
8694;SDS011;65580;49.446;6.854;2023-05-07T13:17:51;3.58;;;1.83;;
8694;SDS011;65580;49.446;6.854;2023-05-07T13:21:59;5.65;;;2.40;;
8694;SDS011;65580;49.446;6.854;2023-05-07T13:26:02;5.10;;;2.58;;
8694;SDS011;65580;49.446;6.854;2023-05-07T13:30:32;4.78;;;2.20;;
8694;SDS011;65580;49.446;6.854;2023-05-07T13:34:38;3.65;;;2.03;;
8694;SDS011;65580;49.446;6.854;2023-05-07T13:38:49;4.18;;;2.20;;
8694;SDS011;65580;49.446;6.854;2023-05-07T13:42:53;3.97;;;2.05;;
8694;SDS011;65580;49.446;6.854;2023-05-07T13:46:57;6.05;;;2.67;;
8694;SDS011;65580;49.446;6.854;2023-05-07T13:51:02;6.47;;;2.20;;
8694;SDS011;65580;49.446;6.854;2023-05-07T13:55:11;3.53;;;2.30;;
8694;SDS011;65580;49.446;6.854;2023-05-07T13:59:15;2.80;;;2.28;;
8694;SDS011;65580;49.446;6.854;2023-05-07T14:03:19;3.15;;;1.77;;
8694;SDS011;65580;49.446;6.854;2023-05-07T14:07:30;5.57;;;2.25;;
8694;SDS011;65580;49.446;6.854;2023-05-07T14:11:35;4.63;;;2.20;;
8694;SDS011;65580;49.446;6.854;2023-05-07T14:15:38;3.72;;;1.98;;
8694;SDS011;65580;49.446;6.854;2023-05-07T14:19:41;3.25;;;1.92;;
8694;SDS011;65580;49.446;6.854;2023-05-07T14:23:45;5.25;;;2.13;;
8694;SDS011;65580;49.446;6.854;2023-05-07T14:27:50;3.72;;;1.90;;
8694;SDS011;65580;49.446;6.854;2023-05-07T14:31:53;3.17;;;1.90;;
8694;SDS011;65580;49.446;6.854;2023-05-07T14:35:56;5.15;;;1.98;;
8694;SDS011;65580;49.446;6.854;2023-05-07T14:44:03;5.53;;;2.28;;
8694;SDS011;65580;49.446;6.854;2023-05-07T14:48:07;4.90;;;2.28;;
8694;SDS011;65580;49.446;6.854;2023-05-07T14:52:10;3.95;;;2.30;;
8694;SDS011;65580;49.446;6.854;2023-05-07T14:56:13;4.68;;;2.40;;
8694;SDS011;65580;49.446;6.854;2023-05-07T15:00:19;4.88;;;2.30;;
8694;SDS011;65580;49.446;6.854;2023-05-07T15:04:23;4.75;;;2.13;;
8694;SDS011;65580;49.446;6.854;2023-05-07T15:08:27;3.10;;;2.17;;
8694;SDS011;65580;49.446;6.854;2023-05-07T15:16:37;6.10;;;2.05;;
8694;SDS011;65580;49.446;6.854;2023-05-07T15:20:41;7.80;;;2.20;;
8694;SDS011;65580;49.446;6.854;2023-05-07T15:24:45;4.07;;;2.05;;
8694;SDS011;65580;49.446;6.854;2023-05-07T15:28:48;6.65;;;2.15;;
8694;SDS011;65580;49.446;6.854;2023-05-07T15:32:53;4.72;;;2.13;;
8694;SDS011;65580;49.446;6.854;2023-05-07T15:36:57;4.43;;;1.80;;
8694;SDS011;65580;49.446;6.854;2023-05-07T15:41:00;5.35;;;1.95;;
8694;SDS011;65580;49.446;6.854;2023-05-07T15:45:03;7.85;;;2.15;;
8694;SDS011;65580;49.446;6.854;2023-05-07T15:49:09;4.40;;;1.95;;
8694;SDS011;65580;49.446;6.854;2023-05-07T15:53:13;2.90;;;1.92;;
8694;SDS011;65580;49.446;6.854;2023-05-07T15:57:16;3.42;;;1.83;;
8694;SDS011;65580;49.446;6.854;2023-05-07T16:01:20;3.15;;;1.90;;
8694;SDS011;65580;49.446;6.854;2023-05-07T16:05:27;4.35;;;1.83;;
8694;SDS011;65580;49.446;6.854;2023-05-07T16:09:31;5.82;;;1.95;;
8694;SDS011;65580;49.446;6.854;2023-05-07T16:13:35;5.20;;;2.22;;
8694;SDS011;65580;49.446;6.854;2023-05-07T16:17:39;7.18;;;2.00;;
8694;SDS011;65580;49.446;6.854;2023-05-07T16:21:43;4.22;;;1.85;;
8694;SDS011;65580;49.446;6.854;2023-05-07T16:25:47;5.90;;;2.15;;
8694;SDS011;65580;49.446;6.854;2023-05-07T16:29:50;3.00;;;1.98;;
8694;SDS011;65580;49.446;6.854;2023-05-07T16:33:54;8.80;;;1.95;;
8694;SDS011;65580;49.446;6.854;2023-05-07T16:37:58;4.63;;;1.88;;
8694;SDS011;65580;49.446;6.854;2023-05-07T16:42:01;4.65;;;2.22;;
8694;SDS011;65580;49.446;6.854;2023-05-07T16:50:10;5.25;;;2.00;;
8694;SDS011;65580;49.446;6.854;2023-05-07T16:54:16;3.58;;;2.20;;
8694;SDS011;65580;49.446;6.854;2023-05-07T16:58:19;6.95;;;2.60;;
8694;SDS011;65580;49.446;6.854;2023-05-07T17:02:22;5.07;;;2.30;;
8694;SDS011;65580;49.446;6.854;2023-05-07T17:06:26;7.00;;;2.40;;
8694;SDS011;65580;49.446;6.854;2023-05-07T17:10:36;4.65;;;2.33;;
8694;SDS011;65580;49.446;6.854;2023-05-07T17:14:39;3.95;;;2.10;;
8694;SDS011;65580;49.446;6.854;2023-05-07T17:22:51;6.00;;;2.30;;
8694;SDS011;65580;49.446;6.854;2023-05-07T17:26:56;3.10;;;2.20;;
8694;SDS011;65580;49.446;6.854;2023-05-07T17:30:59;2.95;;;2.22;;
8694;SDS011;65580;49.446;6.854;2023-05-07T17:35:06;3.53;;;1.90;;
8694;SDS011;65580;49.446;6.854;2023-05-07T17:39:09;5.53;;;2.00;;
8694;SDS011;65580;49.446;6.854;2023-05-07T17:43:14;3.85;;;2.05;;
8694;SDS011;65580;49.446;6.854;2023-05-07T17:47:19;3.65;;;1.85;;
8694;SDS011;65580;49.446;6.854;2023-05-07T17:51:24;2.78;;;1.70;;
8694;SDS011;65580;49.446;6.854;2023-05-07T17:55:42;2.10;;;1.10;;
8694;SDS011;65580;49.446;6.854;2023-05-07T17:59:47;1.77;;;1.00;;
8694;SDS011;65580;49.446;6.854;2023-05-07T18:08:04;8.63;;;2.30;;
8694;SDS011;65580;49.446;6.854;2023-05-07T18:12:07;1.92;;;1.25;;
8694;SDS011;65580;49.446;6.854;2023-05-07T18:16:12;5.70;;;1.58;;
8694;SDS011;65580;49.446;6.854;2023-05-07T18:20:16;1.58;;;1.15;;
8694;SDS011;65580;49.446;6.854;2023-05-07T18:24:19;1.50;;;1.10;;
8694;SDS011;65580;49.446;6.854;2023-05-07T18:32:28;3.15;;;1.00;;
8694;SDS011;65580;49.446;6.854;2023-05-07T18:36:31;2.88;;;1.08;;
8694;SDS011;65580;49.446;6.854;2023-05-07T18:40:35;9.80;;;2.75;;
8694;SDS011;65580;49.446;6.854;2023-05-07T18:44:44;1.75;;;1.27;;
8694;SDS011;65580;49.446;6.854;2023-05-07T18:48:48;9.93;;;1.30;;
8694;SDS011;65580;49.446;6.854;2023-05-07T18:52:56;3.03;;;1.23;;
8694;SDS011;65580;49.446;6.854;2023-05-07T18:57:09;2.60;;;1.23;;
8694;SDS011;65580;49.446;6.854;2023-05-07T19:01:12;3.50;;;1.20;;
8694;SDS011;65580;49.446;6.854;2023-05-07T19:05:31;1.23;;;1.00;;
8694;SDS011;65580;49.446;6.854;2023-05-07T19:09:43;1.30;;;0.90;;
8694;SDS011;65580;49.446;6.854;2023-05-07T19:14:04;1.40;;;1.05;;
8694;SDS011;65580;49.446;6.854;2023-05-07T19:18:28;10.20;;;1.60;;
8694;SDS011;65580;49.446;6.854;2023-05-07T19:22:35;5.13;;;1.85;;
8694;SDS011;65580;49.446;6.854;2023-05-07T19:26:39;3.92;;;1.33;;
8694;SDS011;65580;49.446;6.854;2023-05-07T19:30:43;1.30;;;1.20;;
8694;SDS011;65580;49.446;6.854;2023-05-07T19:38:54;2.42;;;1.20;;
8694;SDS011;65580;49.446;6.854;2023-05-07T19:42:57;21.80;;;5.03;;
8694;SDS011;65580;49.446;6.854;2023-05-07T19:47:01;4.32;;;1.13;;
8694;SDS011;65580;49.446;6.854;2023-05-07T19:51:07;0.98;;;0.93;;
8694;SDS011;65580;49.446;6.854;2023-05-07T19:55:12;6.45;;;1.48;;
8694;SDS011;65580;49.446;6.854;2023-05-07T19:59:15;7.10;;;1.30;;
8694;SDS011;65580;49.446;6.854;2023-05-07T20:03:23;4.65;;;1.10;;
8694;SDS011;65580;49.446;6.854;2023-05-07T20:07:26;1.73;;;1.10;;
8694;SDS011;65580;49.446;6.854;2023-05-07T20:11:30;1.65;;;1.20;;
8694;SDS011;65580;49.446;6.854;2023-05-07T20:15:34;1.35;;;1.13;;
8694;SDS011;65580;49.446;6.854;2023-05-07T20:19:38;1.45;;;1.15;;
8694;SDS011;65580;49.446;6.854;2023-05-07T20:23:41;1.20;;;1.10;;
8694;SDS011;65580;49.446;6.854;2023-05-07T20:31:48;2.92;;;1.20;;
8694;SDS011;65580;49.446;6.854;2023-05-07T20:35:52;6.15;;;1.30;;
8694;SDS011;65580;49.446;6.854;2023-05-07T20:43:59;4.45;;;1.30;;
8694;SDS011;65580;49.446;6.854;2023-05-07T20:48:03;4.75;;;1.58;;
8694;SDS011;65580;49.446;6.854;2023-05-07T20:52:07;4.22;;;1.33;;
8694;SDS011;65580;49.446;6.854;2023-05-07T20:56:14;1.77;;;1.13;;
8694;SDS011;65580;49.446;6.854;2023-05-07T21:04:23;3.92;;;1.33;;
8694;SDS011;65580;49.446;6.854;2023-05-07T21:08:27;4.13;;;1.40;;
8694;SDS011;65580;49.446;6.854;2023-05-07T21:12:30;3.05;;;1.35;;
8694;SDS011;65580;49.446;6.854;2023-05-07T21:20:39;2.30;;;1.25;;
8694;SDS011;65580;49.446;6.854;2023-05-07T21:24:42;2.83;;;1.75;;
8694;SDS011;65580;49.446;6.854;2023-05-07T21:28:46;2.78;;;1.23;;
8694;SDS011;65580;49.446;6.854;2023-05-07T21:32:51;3.88;;;1.33;;
8694;SDS011;65580;49.446;6.854;2023-05-07T21:36:56;3.25;;;1.35;;
8694;SDS011;65580;49.446;6.854;2023-05-07T21:40:59;2.78;;;1.60;;
8694;SDS011;65580;49.446;6.854;2023-05-07T21:45:03;2.65;;;1.23;;
8694;SDS011;65580;49.446;6.854;2023-05-07T21:49:09;6.30;;;1.40;;
8694;SDS011;65580;49.446;6.854;2023-05-07T21:53:12;1.70;;;1.20;;
8694;SDS011;65580;49.446;6.854;2023-05-07T21:57:18;3.35;;;1.10;;
8694;SDS011;65580;49.446;6.854;2023-05-07T22:01:26;3.13;;;1.55;;
8694;SDS011;65580;49.446;6.854;2023-05-07T22:05:31;2.75;;;1.50;;
8694;SDS011;65580;49.446;6.854;2023-05-07T22:09:34;2.58;;;1.38;;
8694;SDS011;65580;49.446;6.854;2023-05-07T22:13:37;2.70;;;1.50;;
8694;SDS011;65580;49.446;6.854;2023-05-07T22:17:41;2.28;;;1.58;;
8694;SDS011;65580;49.446;6.854;2023-05-07T22:21:46;2.53;;;1.30;;
8694;SDS011;65580;49.446;6.854;2023-05-07T22:25:50;2.30;;;1.40;;
8694;SDS011;65580;49.446;6.854;2023-05-07T22:29:55;5.78;;;1.67;;
8694;SDS011;65580;49.446;6.854;2023-05-07T22:33:59;5.60;;;1.67;;
8694;SDS011;65580;49.446;6.854;2023-05-07T22:38:05;3.50;;;1.45;;
8694;SDS011;65580;49.446;6.854;2023-05-07T22:42:08;4.32;;;1.40;;
8694;SDS011;65580;49.446;6.854;2023-05-07T22:46:12;2.47;;;1.33;;
8694;SDS011;65580;49.446;6.854;2023-05-07T22:50:16;2.75;;;1.60;;
8694;SDS011;65580;49.446;6.854;2023-05-07T22:54:21;2.97;;;1.60;;
8694;SDS011;65580;49.446;6.854;2023-05-07T22:58:25;2.20;;;1.40;;
8694;SDS011;65580;49.446;6.854;2023-05-07T23:02:29;3.17;;;1.40;;
8694;SDS011;65580;49.446;6.854;2023-05-07T23:06:42;20.30;;;2.08;;
8694;SDS011;65580;49.446;6.854;2023-05-07T23:10:50;5.20;;;1.60;;
8694;SDS011;65580;49.446;6.854;2023-05-07T23:14:56;5.13;;;1.73;;
8694;SDS011;65580;49.446;6.854;2023-05-07T23:18:59;4.13;;;1.58;;
8694;SDS011;65580;49.446;6.854;2023-05-07T23:23:03;2.70;;;1.80;;
8694;SDS011;65580;49.446;6.854;2023-05-07T23:27:09;2.03;;;1.40;;
8694;SDS011;65580;49.446;6.854;2023-05-07T23:31:21;2.40;;;1.50;;
8694;SDS011;65580;49.446;6.854;2023-05-07T23:35:25;1.92;;;1.40;;
8694;SDS011;65580;49.446;6.854;2023-05-07T23:43:33;4.07;;;1.60;;
8694;SDS011;65580;49.446;6.854;2023-05-07T23:47:36;2.70;;;1.58;;
8694;SDS011;65580;49.446;6.854;2023-05-07T23:55:42;1.67;;;1.42;;
8694;SDS011;65580;49.446;6.854;2023-05-07T23:59:48;1.75;;;1.58;;
